sensor_id;sensor_type;location;lat;lon;timestamp;P1;durP1;ratioP1;P2;durP2;ratioP2
37303;SDS011;23188;51.188;16.374;2022-07-09T00:01:29;4.42;;;2.35;;
37303;SDS011;23188;51.188;16.374;2022-07-09T00:05:30;4.03;;;2.83;;
37303;SDS011;23188;51.188;16.374;2022-07-09T00:09:32;7.28;;;2.35;;
37303;SDS011;23188;51.188;16.374;2022-07-09T00:13:33;2.98;;;2.55;;
37303;SDS011;23188;51.188;16.374;2022-07-09T00:17:34;5.92;;;2.35;;
37303;SDS011;23188;51.188;16.374;2022-07-09T00:21:36;4.05;;;2.30;;
37303;SDS011;23188;51.188;16.374;2022-07-09T00:25:38;5.92;;;3.77;;
37303;SDS011;23188;51.188;16.374;2022-07-09T00:29:39;4.80;;;2.72;;
37303;SDS011;23188;51.188;16.374;2022-07-09T00:33:41;3.37;;;2.35;;
37303;SDS011;23188;51.188;16.374;2022-07-09T00:37:56;3.02;;;2.25;;
37303;SDS011;23188;51.188;16.374;2022-07-09T00:42:04;3.08;;;2.62;;
37303;SDS011;23188;51.188;16.374;2022-07-09T00:46:07;4.22;;;2.00;;
37303;SDS011;23188;51.188;16.374;2022-07-09T00:50:09;4.05;;;1.70;;
37303;SDS011;23188;51.188;16.374;2022-07-09T00:54:11;3.80;;;2.87;;
37303;SDS011;23188;51.188;16.374;2022-07-09T00:58:15;6.12;;;2.80;;
37303;SDS011;23188;51.188;16.374;2022-07-09T01:02:18;8.83;;;3.10;;
37303;SDS011;23188;51.188;16.374;2022-07-09T01:06:23;5.87;;;3.50;;
37303;SDS011;23188;51.188;16.374;2022-07-09T01:10:24;3.55;;;2.20;;
37303;SDS011;23188;51.188;16.374;2022-07-09T01:14:25;6.95;;;2.98;;
37303;SDS011;23188;51.188;16.374;2022-07-09T01:18:27;5.40;;;3.33;;
37303;SDS011;23188;51.188;16.374;2022-07-09T01:26:35;15.08;;;5.05;;
37303;SDS011;23188;51.188;16.374;2022-07-09T01:30:37;9.68;;;5.20;;
37303;SDS011;23188;51.188;16.374;2022-07-09T01:39:18;7.90;;;4.60;;
37303;SDS011;23188;51.188;16.374;2022-07-09T01:43:19;6.15;;;4.30;;
37303;SDS011;23188;51.188;16.374;2022-07-09T01:47:20;4.75;;;3.22;;
37303;SDS011;23188;51.188;16.374;2022-07-09T01:51:21;6.37;;;3.77;;
37303;SDS011;23188;51.188;16.374;2022-07-09T01:55:30;7.17;;;3.85;;
37303;SDS011;23188;51.188;16.374;2022-07-09T01:59:32;7.95;;;3.33;;
37303;SDS011;23188;51.188;16.374;2022-07-09T02:03:34;5.50;;;3.35;;
37303;SDS011;23188;51.188;16.374;2022-07-09T02:07:35;6.58;;;4.08;;
37303;SDS011;23188;51.188;16.374;2022-07-09T02:11:36;7.30;;;3.60;;
37303;SDS011;23188;51.188;16.374;2022-07-09T02:15:37;5.15;;;3.80;;
37303;SDS011;23188;51.188;16.374;2022-07-09T02:19:39;5.40;;;3.20;;
37303;SDS011;23188;51.188;16.374;2022-07-09T02:32:31;4.65;;;2.75;;
37303;SDS011;23188;51.188;16.374;2022-07-09T02:36:32;5.45;;;2.85;;
37303;SDS011;23188;51.188;16.374;2022-07-09T02:40:34;6.08;;;3.98;;
37303;SDS011;23188;51.188;16.374;2022-07-09T02:48:56;9.23;;;4.22;;
37303;SDS011;23188;51.188;16.374;2022-07-09T02:52:58;4.83;;;3.60;;
37303;SDS011;23188;51.188;16.374;2022-07-09T02:57:01;6.62;;;3.30;;
37303;SDS011;23188;51.188;16.374;2022-07-09T03:01:02;4.62;;;3.35;;
37303;SDS011;23188;51.188;16.374;2022-07-09T03:05:07;3.90;;;3.60;;
37303;SDS011;23188;51.188;16.374;2022-07-09T03:09:11;4.75;;;3.12;;
37303;SDS011;23188;51.188;16.374;2022-07-09T03:13:13;10.38;;;5.03;;
37303;SDS011;23188;51.188;16.374;2022-07-09T03:17:32;8.18;;;3.05;;
37303;SDS011;23188;51.188;16.374;2022-07-09T03:21:34;3.90;;;3.15;;
37303;SDS011;23188;51.188;16.374;2022-07-09T03:25:48;5.67;;;3.45;;
37303;SDS011;23188;51.188;16.374;2022-07-09T03:30:00;5.58;;;3.47;;
37303;SDS011;23188;51.188;16.374;2022-07-09T03:34:03;7.30;;;3.45;;
37303;SDS011;23188;51.188;16.374;2022-07-09T03:38:06;5.60;;;4.17;;
37303;SDS011;23188;51.188;16.374;2022-07-09T03:42:08;5.22;;;3.00;;
37303;SDS011;23188;51.188;16.374;2022-07-09T03:46:09;3.72;;;3.42;;
37303;SDS011;23188;51.188;16.374;2022-07-09T03:50:13;5.45;;;3.65;;
37303;SDS011;23188;51.188;16.374;2022-07-09T03:54:15;7.55;;;3.12;;
37303;SDS011;23188;51.188;16.374;2022-07-09T03:58:16;6.83;;;4.40;;
37303;SDS011;23188;51.188;16.374;2022-07-09T04:02:18;14.10;;;4.25;;
37303;SDS011;23188;51.188;16.374;2022-07-09T04:06:19;6.87;;;4.28;;
37303;SDS011;23188;51.188;16.374;2022-07-09T04:14:33;6.42;;;3.42;;
37303;SDS011;23188;51.188;16.374;2022-07-09T04:18:35;5.42;;;3.77;;
37303;SDS011;23188;51.188;16.374;2022-07-09T04:22:38;4.78;;;3.60;;
37303;SDS011;23188;51.188;16.374;2022-07-09T04:26:39;4.28;;;3.50;;
37303;SDS011;23188;51.188;16.374;2022-07-09T04:30:40;3.98;;;3.20;;
37303;SDS011;23188;51.188;16.374;2022-07-09T04:34:42;7.25;;;4.28;;
37303;SDS011;23188;51.188;16.374;2022-07-09T04:38:43;5.50;;;4.30;;
37303;SDS011;23188;51.188;16.374;2022-07-09T04:42:44;20.77;;;5.37;;
37303;SDS011;23188;51.188;16.374;2022-07-09T04:46:46;6.70;;;4.08;;
37303;SDS011;23188;51.188;16.374;2022-07-09T04:50:47;3.95;;;3.65;;
37303;SDS011;23188;51.188;16.374;2022-07-09T04:54:49;3.12;;;2.80;;
37303;SDS011;23188;51.188;16.374;2022-07-09T04:58:51;6.75;;;3.30;;
37303;SDS011;23188;51.188;16.374;2022-07-09T05:02:53;4.00;;;3.58;;
37303;SDS011;23188;51.188;16.374;2022-07-09T05:06:54;6.08;;;3.10;;
37303;SDS011;23188;51.188;16.374;2022-07-09T05:11:05;7.87;;;3.50;;
37303;SDS011;23188;51.188;16.374;2022-07-09T05:15:07;3.60;;;2.47;;
37303;SDS011;23188;51.188;16.374;2022-07-09T05:19:10;10.85;;;3.47;;
37303;SDS011;23188;51.188;16.374;2022-07-09T05:23:12;5.90;;;2.95;;
37303;SDS011;23188;51.188;16.374;2022-07-09T05:27:14;7.50;;;4.05;;
37303;SDS011;23188;51.188;16.374;2022-07-09T05:31:16;9.20;;;3.12;;
37303;SDS011;23188;51.188;16.374;2022-07-09T05:35:17;7.17;;;2.62;;
37303;SDS011;23188;51.188;16.374;2022-07-09T05:39:19;11.40;;;3.33;;
37303;SDS011;23188;51.188;16.374;2022-07-09T05:43:21;4.47;;;2.87;;
37303;SDS011;23188;51.188;16.374;2022-07-09T05:47:22;4.25;;;2.52;;
37303;SDS011;23188;51.188;16.374;2022-07-09T05:51:24;8.33;;;2.15;;
37303;SDS011;23188;51.188;16.374;2022-07-09T05:55:26;7.30;;;2.62;;
37303;SDS011;23188;51.188;16.374;2022-07-09T05:59:27;4.50;;;2.85;;
37303;SDS011;23188;51.188;16.374;2022-07-09T06:03:29;4.35;;;2.77;;
37303;SDS011;23188;51.188;16.374;2022-07-09T06:07:30;3.67;;;2.45;;
37303;SDS011;23188;51.188;16.374;2022-07-09T06:11:32;5.30;;;2.70;;
37303;SDS011;23188;51.188;16.374;2022-07-09T06:15:34;3.20;;;2.55;;
37303;SDS011;23188;51.188;16.374;2022-07-09T06:19:36;6.37;;;3.35;;
37303;SDS011;23188;51.188;16.374;2022-07-09T06:23:37;4.20;;;3.27;;
37303;SDS011;23188;51.188;16.374;2022-07-09T06:27:39;2.45;;;2.25;;
37303;SDS011;23188;51.188;16.374;2022-07-09T06:31:42;3.30;;;2.25;;
37303;SDS011;23188;51.188;16.374;2022-07-09T06:35:43;6.37;;;4.12;;
37303;SDS011;23188;51.188;16.374;2022-07-09T06:39:45;4.37;;;3.20;;
37303;SDS011;23188;51.188;16.374;2022-07-09T06:43:48;4.58;;;3.52;;
37303;SDS011;23188;51.188;16.374;2022-07-09T06:47:50;7.67;;;5.65;;
37303;SDS011;23188;51.188;16.374;2022-07-09T06:51:53;9.48;;;4.90;;
37303;SDS011;23188;51.188;16.374;2022-07-09T06:55:55;4.80;;;4.37;;
37303;SDS011;23188;51.188;16.374;2022-07-09T06:59:56;6.12;;;5.17;;
37303;SDS011;23188;51.188;16.374;2022-07-09T07:03:58;7.53;;;4.40;;
37303;SDS011;23188;51.188;16.374;2022-07-09T07:08:01;5.20;;;4.62;;
37303;SDS011;23188;51.188;16.374;2022-07-09T07:12:04;5.30;;;4.80;;
37303;SDS011;23188;51.188;16.374;2022-07-09T07:16:06;6.70;;;5.17;;
37303;SDS011;23188;51.188;16.374;2022-07-09T07:20:08;4.35;;;3.87;;
37303;SDS011;23188;51.188;16.374;2022-07-09T07:24:11;2.20;;;2.00;;
37303;SDS011;23188;51.188;16.374;2022-07-09T07:28:13;4.92;;;1.72;;
37303;SDS011;23188;51.188;16.374;2022-07-09T07:32:15;5.28;;;2.27;;
37303;SDS011;23188;51.188;16.374;2022-07-09T07:36:16;4.47;;;1.90;;
37303;SDS011;23188;51.188;16.374;2022-07-09T07:40:18;3.25;;;1.50;;
37303;SDS011;23188;51.188;16.374;2022-07-09T07:44:20;3.85;;;2.50;;
37303;SDS011;23188;51.188;16.374;2022-07-09T07:48:23;5.90;;;1.52;;
37303;SDS011;23188;51.188;16.374;2022-07-09T07:52:26;1.60;;;1.50;;
37303;SDS011;23188;51.188;16.374;2022-07-09T07:56:28;4.10;;;1.95;;
37303;SDS011;23188;51.188;16.374;2022-07-09T08:00:30;4.40;;;2.17;;
37303;SDS011;23188;51.188;16.374;2022-07-09T08:04:31;3.52;;;2.12;;
37303;SDS011;23188;51.188;16.374;2022-07-09T08:08:33;2.58;;;1.62;;
37303;SDS011;23188;51.188;16.374;2022-07-09T08:12:34;2.00;;;1.80;;
37303;SDS011;23188;51.188;16.374;2022-07-09T08:16:36;3.83;;;2.60;;
37303;SDS011;23188;51.188;16.374;2022-07-09T08:20:38;2.50;;;2.30;;
37303;SDS011;23188;51.188;16.374;2022-07-09T08:24:41;5.00;;;2.27;;
37303;SDS011;23188;51.188;16.374;2022-07-09T08:28:42;6.75;;;3.05;;
37303;SDS011;23188;51.188;16.374;2022-07-09T08:32:44;3.50;;;2.70;;
37303;SDS011;23188;51.188;16.374;2022-07-09T08:36:45;6.60;;;3.55;;
37303;SDS011;23188;51.188;16.374;2022-07-09T08:40:47;6.20;;;3.35;;
37303;SDS011;23188;51.188;16.374;2022-07-09T08:44:49;3.15;;;2.90;;
37303;SDS011;23188;51.188;16.374;2022-07-09T08:48:53;5.03;;;3.80;;
37303;SDS011;23188;51.188;16.374;2022-07-09T08:52:56;3.47;;;3.17;;
37303;SDS011;23188;51.188;16.374;2022-07-09T08:56:58;6.37;;;2.85;;
37303;SDS011;23188;51.188;16.374;2022-07-09T09:00:59;3.60;;;2.30;;
37303;SDS011;23188;51.188;16.374;2022-07-09T09:05:05;9.50;;;4.17;;
37303;SDS011;23188;51.188;16.374;2022-07-09T09:09:17;3.30;;;2.47;;
37303;SDS011;23188;51.188;16.374;2022-07-09T09:13:19;3.85;;;3.45;;
37303;SDS011;23188;51.188;16.374;2022-07-09T09:17:20;4.35;;;3.10;;
37303;SDS011;23188;51.188;16.374;2022-07-09T09:21:23;19.77;;;4.25;;
37303;SDS011;23188;51.188;16.374;2022-07-09T09:25:26;4.40;;;3.02;;
37303;SDS011;23188;51.188;16.374;2022-07-09T09:29:28;3.80;;;3.33;;
37303;SDS011;23188;51.188;16.374;2022-07-09T09:33:30;4.80;;;3.52;;
37303;SDS011;23188;51.188;16.374;2022-07-09T09:37:32;3.15;;;2.10;;
37303;SDS011;23188;51.188;16.374;2022-07-09T09:41:34;3.42;;;1.80;;
37303;SDS011;23188;51.188;16.374;2022-07-09T09:45:35;8.13;;;2.65;;
37303;SDS011;23188;51.188;16.374;2022-07-09T09:49:37;2.60;;;1.95;;
37303;SDS011;23188;51.188;16.374;2022-07-09T09:53:43;3.12;;;2.60;;
37303;SDS011;23188;51.188;16.374;2022-07-09T09:57:45;4.30;;;1.37;;
37303;SDS011;23188;51.188;16.374;2022-07-09T10:01:47;2.33;;;1.87;;
37303;SDS011;23188;51.188;16.374;2022-07-09T10:05:48;2.52;;;2.22;;
37303;SDS011;23188;51.188;16.374;2022-07-09T10:09:52;2.22;;;1.52;;
37303;SDS011;23188;51.188;16.374;2022-07-09T10:13:56;3.92;;;1.35;;
37303;SDS011;23188;51.188;16.374;2022-07-09T10:17:58;64.55;;;15.38;;
37303;SDS011;23188;51.188;16.374;2022-07-09T10:21:59;4.05;;;1.72;;
37303;SDS011;23188;51.188;16.374;2022-07-09T10:26:01;2.20;;;1.65;;
37303;SDS011;23188;51.188;16.374;2022-07-09T10:30:03;4.10;;;1.92;;
37303;SDS011;23188;51.188;16.374;2022-07-09T10:34:06;5.20;;;3.45;;
37303;SDS011;23188;51.188;16.374;2022-07-09T10:38:10;12.77;;;3.13;;
37303;SDS011;23188;51.188;16.374;2022-07-09T10:42:19;5.85;;;2.83;;
37303;SDS011;23188;51.188;16.374;2022-07-09T10:46:24;7.92;;;4.33;;
37303;SDS011;23188;51.188;16.374;2022-07-09T10:50:27;4.97;;;3.25;;
37303;SDS011;23188;51.188;16.374;2022-07-09T10:54:31;4.92;;;3.47;;
37303;SDS011;23188;51.188;16.374;2022-07-09T10:58:33;4.87;;;4.03;;
37303;SDS011;23188;51.188;16.374;2022-07-09T11:02:34;6.87;;;4.45;;
37303;SDS011;23188;51.188;16.374;2022-07-09T11:06:46;5.90;;;4.22;;
37303;SDS011;23188;51.188;16.374;2022-07-09T11:10:48;4.37;;;3.90;;
37303;SDS011;23188;51.188;16.374;2022-07-09T11:14:50;18.82;;;6.70;;
37303;SDS011;23188;51.188;16.374;2022-07-09T11:18:52;5.35;;;3.87;;
37303;SDS011;23188;51.188;16.374;2022-07-09T11:22:55;3.95;;;3.55;;
37303;SDS011;23188;51.188;16.374;2022-07-09T11:27:08;5.12;;;4.20;;
37303;SDS011;23188;51.188;16.374;2022-07-09T11:31:08;5.72;;;3.87;;
37303;SDS011;23188;51.188;16.374;2022-07-09T11:39:27;4.67;;;3.80;;
37303;SDS011;23188;51.188;16.374;2022-07-09T11:43:31;3.50;;;3.07;;
37303;SDS011;23188;51.188;16.374;2022-07-09T11:47:37;5.45;;;3.77;;
37303;SDS011;23188;51.188;16.374;2022-07-09T11:51:38;6.92;;;3.45;;
37303;SDS011;23188;51.188;16.374;2022-07-09T11:55:40;9.18;;;3.95;;
37303;SDS011;23188;51.188;16.374;2022-07-09T11:59:41;4.40;;;3.70;;
37303;SDS011;23188;51.188;16.374;2022-07-09T12:03:47;4.20;;;2.98;;
37303;SDS011;23188;51.188;16.374;2022-07-09T12:07:52;4.83;;;3.30;;
37303;SDS011;23188;51.188;16.374;2022-07-09T12:11:54;8.65;;;3.17;;
37303;SDS011;23188;51.188;16.374;2022-07-09T12:20:56;8.63;;;3.30;;
37303;SDS011;23188;51.188;16.374;2022-07-09T12:24:57;7.37;;;3.55;;
37303;SDS011;23188;51.188;16.374;2022-07-09T12:28:59;8.83;;;4.35;;
37303;SDS011;23188;51.188;16.374;2022-07-09T12:33:01;4.87;;;4.35;;
37303;SDS011;23188;51.188;16.374;2022-07-09T12:41:11;10.90;;;7.10;;
37303;SDS011;23188;51.188;16.374;2022-07-09T12:45:13;11.33;;;6.45;;
37303;SDS011;23188;51.188;16.374;2022-07-09T12:49:14;18.85;;;7.87;;
37303;SDS011;23188;51.188;16.374;2022-07-09T12:53:16;8.65;;;7.03;;
37303;SDS011;23188;51.188;16.374;2022-07-09T12:57:18;19.27;;;7.65;;
37303;SDS011;23188;51.188;16.374;2022-07-09T13:01:19;11.00;;;7.42;;
37303;SDS011;23188;51.188;16.374;2022-07-09T13:05:21;7.65;;;5.83;;
37303;SDS011;23188;51.188;16.374;2022-07-09T13:09:22;7.70;;;6.72;;
37303;SDS011;23188;51.188;16.374;2022-07-09T13:13:24;6.67;;;6.15;;
37303;SDS011;23188;51.188;16.374;2022-07-09T13:17:26;5.72;;;5.17;;
37303;SDS011;23188;51.188;16.374;2022-07-09T13:21:27;6.10;;;5.00;;
37303;SDS011;23188;51.188;16.374;2022-07-09T13:25:30;8.85;;;5.53;;
37303;SDS011;23188;51.188;16.374;2022-07-09T13:29:32;8.85;;;5.53;;
37303;SDS011;23188;51.188;16.374;2022-07-09T13:33:33;21.25;;;6.72;;
37303;SDS011;23188;51.188;16.374;2022-07-09T13:37:36;17.00;;;7.22;;
37303;SDS011;23188;51.188;16.374;2022-07-09T13:41:37;6.42;;;4.17;;
37303;SDS011;23188;51.188;16.374;2022-07-09T13:45:39;17.17;;;5.70;;
37303;SDS011;23188;51.188;16.374;2022-07-09T13:49:41;3.67;;;3.10;;
37303;SDS011;23188;51.188;16.374;2022-07-09T13:53:42;5.50;;;3.08;;
37303;SDS011;23188;51.188;16.374;2022-07-09T13:57:44;4.03;;;3.52;;
37303;SDS011;23188;51.188;16.374;2022-07-09T14:01:45;5.42;;;3.95;;
37303;SDS011;23188;51.188;16.374;2022-07-09T14:05:47;8.45;;;3.50;;
37303;SDS011;23188;51.188;16.374;2022-07-09T14:09:49;4.62;;;2.85;;
37303;SDS011;23188;51.188;16.374;2022-07-09T14:13:52;8.98;;;4.72;;
37303;SDS011;23188;51.188;16.374;2022-07-09T14:17:55;3.67;;;3.25;;
37303;SDS011;23188;51.188;16.374;2022-07-09T14:21:56;4.55;;;4.15;;
37303;SDS011;23188;51.188;16.374;2022-07-09T14:25:58;4.87;;;4.40;;
37303;SDS011;23188;51.188;16.374;2022-07-09T14:30:00;7.90;;;4.67;;
37303;SDS011;23188;51.188;16.374;2022-07-09T14:34:01;4.35;;;3.67;;
37303;SDS011;23188;51.188;16.374;2022-07-09T14:38:03;7.60;;;5.40;;
37303;SDS011;23188;51.188;16.374;2022-07-09T14:42:05;5.35;;;3.02;;
37303;SDS011;23188;51.188;16.374;2022-07-09T14:46:07;4.85;;;4.00;;
37303;SDS011;23188;51.188;16.374;2022-07-09T14:50:08;7.08;;;4.10;;
37303;SDS011;23188;51.188;16.374;2022-07-09T14:54:10;7.92;;;4.83;;
37303;SDS011;23188;51.188;16.374;2022-07-09T14:58:11;7.20;;;3.77;;
37303;SDS011;23188;51.188;16.374;2022-07-09T15:02:13;6.20;;;3.37;;
37303;SDS011;23188;51.188;16.374;2022-07-09T15:06:15;4.25;;;3.40;;
37303;SDS011;23188;51.188;16.374;2022-07-09T15:10:18;13.15;;;2.47;;
37303;SDS011;23188;51.188;16.374;2022-07-09T15:14:20;3.87;;;2.62;;
37303;SDS011;23188;51.188;16.374;2022-07-09T15:18:23;3.98;;;2.72;;
37303;SDS011;23188;51.188;16.374;2022-07-09T15:22:24;6.03;;;2.92;;
37303;SDS011;23188;51.188;16.374;2022-07-09T15:26:26;3.37;;;2.05;;
37303;SDS011;23188;51.188;16.374;2022-07-09T15:30:28;3.58;;;2.52;;
37303;SDS011;23188;51.188;16.374;2022-07-09T15:34:29;3.02;;;1.98;;
37303;SDS011;23188;51.188;16.374;2022-07-09T15:38:31;3.42;;;2.37;;
37303;SDS011;23188;51.188;16.374;2022-07-09T15:42:33;3.25;;;2.00;;
37303;SDS011;23188;51.188;16.374;2022-07-09T15:46:34;4.60;;;2.30;;
37303;SDS011;23188;51.188;16.374;2022-07-09T15:50:36;4.17;;;1.50;;
37303;SDS011;23188;51.188;16.374;2022-07-09T15:54:38;2.83;;;1.98;;
37303;SDS011;23188;51.188;16.374;2022-07-09T15:58:39;3.67;;;2.00;;
37303;SDS011;23188;51.188;16.374;2022-07-09T16:02:41;3.80;;;2.02;;
37303;SDS011;23188;51.188;16.374;2022-07-09T16:06:42;5.15;;;2.37;;
37303;SDS011;23188;51.188;16.374;2022-07-09T16:10:45;4.35;;;2.67;;
37303;SDS011;23188;51.188;16.374;2022-07-09T16:14:46;3.72;;;2.40;;
37303;SDS011;23188;51.188;16.374;2022-07-09T16:18:48;2.67;;;2.45;;
37303;SDS011;23188;51.188;16.374;2022-07-09T16:22:49;3.50;;;2.72;;
37303;SDS011;23188;51.188;16.374;2022-07-09T16:26:52;3.47;;;2.22;;
37303;SDS011;23188;51.188;16.374;2022-07-09T16:30:53;18.98;;;4.03;;
37303;SDS011;23188;51.188;16.374;2022-07-09T16:34:55;22.17;;;5.60;;
37303;SDS011;23188;51.188;16.374;2022-07-09T16:38:56;2.65;;;1.92;;
37303;SDS011;23188;51.188;16.374;2022-07-09T16:42:58;2.55;;;1.42;;
37303;SDS011;23188;51.188;16.374;2022-07-09T16:47:00;1.85;;;1.40;;
37303;SDS011;23188;51.188;16.374;2022-07-09T16:51:01;3.47;;;1.77;;
37303;SDS011;23188;51.188;16.374;2022-07-09T16:55:04;6.97;;;2.70;;
37303;SDS011;23188;51.188;16.374;2022-07-09T16:59:07;3.70;;;1.22;;
37303;SDS011;23188;51.188;16.374;2022-07-09T17:03:09;4.67;;;2.22;;
37303;SDS011;23188;51.188;16.374;2022-07-09T17:07:12;11.03;;;2.62;;
37303;SDS011;23188;51.188;16.374;2022-07-09T17:11:14;7.92;;;2.45;;
37303;SDS011;23188;51.188;16.374;2022-07-09T17:15:16;6.45;;;1.92;;
37303;SDS011;23188;51.188;16.374;2022-07-09T17:19:17;8.55;;;2.27;;
37303;SDS011;23188;51.188;16.374;2022-07-09T17:23:19;3.98;;;1.05;;
37303;SDS011;23188;51.188;16.374;2022-07-09T17:27:24;2.15;;;1.20;;
37303;SDS011;23188;51.188;16.374;2022-07-09T17:31:25;2.95;;;1.45;;
37303;SDS011;23188;51.188;16.374;2022-07-09T17:35:29;1.32;;;0.95;;
37303;SDS011;23188;51.188;16.374;2022-07-09T17:39:31;1.85;;;1.12;;
37303;SDS011;23188;51.188;16.374;2022-07-09T17:43:33;1.82;;;1.10;;
37303;SDS011;23188;51.188;16.374;2022-07-09T17:47:35;4.35;;;1.70;;
37303;SDS011;23188;51.188;16.374;2022-07-09T17:51:36;2.65;;;1.20;;
37303;SDS011;23188;51.188;16.374;2022-07-09T17:55:38;1.65;;;1.20;;
37303;SDS011;23188;51.188;16.374;2022-07-09T17:59:39;3.40;;;1.25;;
37303;SDS011;23188;51.188;16.374;2022-07-09T18:03:41;2.33;;;1.80;;
37303;SDS011;23188;51.188;16.374;2022-07-09T18:07:43;11.08;;;2.75;;
37303;SDS011;23188;51.188;16.374;2022-07-09T18:11:45;3.67;;;1.95;;
37303;SDS011;23188;51.188;16.374;2022-07-09T18:15:46;3.50;;;2.05;;
37303;SDS011;23188;51.188;16.374;2022-07-09T18:19:48;4.12;;;1.57;;
37303;SDS011;23188;51.188;16.374;2022-07-09T18:23:52;1.85;;;1.20;;
37303;SDS011;23188;51.188;16.374;2022-07-09T18:27:53;2.15;;;1.40;;
37303;SDS011;23188;51.188;16.374;2022-07-09T18:31:55;2.30;;;1.57;;
37303;SDS011;23188;51.188;16.374;2022-07-09T18:35:56;3.27;;;1.72;;
37303;SDS011;23188;51.188;16.374;2022-07-09T18:39:58;5.83;;;1.98;;
37303;SDS011;23188;51.188;16.374;2022-07-09T18:44:00;12.85;;;3.17;;
37303;SDS011;23188;51.188;16.374;2022-07-09T18:48:06;5.17;;;1.37;;
37303;SDS011;23188;51.188;16.374;2022-07-09T18:52:08;2.70;;;2.47;;
37303;SDS011;23188;51.188;16.374;2022-07-09T18:56:10;3.62;;;2.33;;
37303;SDS011;23188;51.188;16.374;2022-07-09T19:00:12;4.45;;;2.00;;
37303;SDS011;23188;51.188;16.374;2022-07-09T19:04:15;4.30;;;1.85;;
37303;SDS011;23188;51.188;16.374;2022-07-09T19:08:17;12.68;;;3.20;;
37303;SDS011;23188;51.188;16.374;2022-07-09T19:12:18;9.08;;;2.45;;
37303;SDS011;23188;51.188;16.374;2022-07-09T19:16:25;7.25;;;1.55;;
37303;SDS011;23188;51.188;16.374;2022-07-09T19:24:31;9.85;;;2.08;;
37303;SDS011;23188;51.188;16.374;2022-07-09T19:28:33;1.42;;;1.32;;
37303;SDS011;23188;51.188;16.374;2022-07-09T19:32:35;2.42;;;1.60;;
37303;SDS011;23188;51.188;16.374;2022-07-09T19:36:56;1.30;;;1.20;;
37303;SDS011;23188;51.188;16.374;2022-07-09T19:40:58;5.80;;;1.75;;
37303;SDS011;23188;51.188;16.374;2022-07-09T19:49:12;3.40;;;1.65;;
37303;SDS011;23188;51.188;16.374;2022-07-09T19:53:14;2.60;;;2.17;;
37303;SDS011;23188;51.188;16.374;2022-07-09T19:57:15;2.85;;;2.10;;
37303;SDS011;23188;51.188;16.374;2022-07-09T20:01:16;1.72;;;1.62;;
37303;SDS011;23188;51.188;16.374;2022-07-09T20:05:22;4.17;;;1.87;;
37303;SDS011;23188;51.188;16.374;2022-07-09T20:09:24;6.72;;;2.80;;
37303;SDS011;23188;51.188;16.374;2022-07-09T20:13:32;5.97;;;2.67;;
37303;SDS011;23188;51.188;16.374;2022-07-09T20:17:35;1.82;;;1.70;;
37303;SDS011;23188;51.188;16.374;2022-07-09T20:21:37;1.15;;;1.05;;
37303;SDS011;23188;51.188;16.374;2022-07-09T20:25:41;2.22;;;1.40;;
37303;SDS011;23188;51.188;16.374;2022-07-09T20:29:43;1.98;;;0.90;;
37303;SDS011;23188;51.188;16.374;2022-07-09T20:33:44;2.15;;;1.12;;
37303;SDS011;23188;51.188;16.374;2022-07-09T20:37:46;1.87;;;0.53;;
37303;SDS011;23188;51.188;16.374;2022-07-09T20:41:47;2.25;;;0.85;;
37303;SDS011;23188;51.188;16.374;2022-07-09T20:45:48;1.27;;;1.07;;
37303;SDS011;23188;51.188;16.374;2022-07-09T20:49:51;1.10;;;0.70;;
37303;SDS011;23188;51.188;16.374;2022-07-09T20:53:54;1.50;;;0.65;;
37303;SDS011;23188;51.188;16.374;2022-07-09T20:57:55;1.00;;;0.80;;
37303;SDS011;23188;51.188;16.374;2022-07-09T21:01:57;1.52;;;1.00;;
37303;SDS011;23188;51.188;16.374;2022-07-09T21:05:58;1.07;;;0.75;;
37303;SDS011;23188;51.188;16.374;2022-07-09T21:10:00;3.12;;;1.12;;
37303;SDS011;23188;51.188;16.374;2022-07-09T21:14:03;0.82;;;0.80;;
37303;SDS011;23188;51.188;16.374;2022-07-09T21:18:04;1.62;;;1.32;;
37303;SDS011;23188;51.188;16.374;2022-07-09T21:22:23;1.92;;;0.80;;
37303;SDS011;23188;51.188;16.374;2022-07-09T21:26:30;4.28;;;1.35;;
37303;SDS011;23188;51.188;16.374;2022-07-09T21:30:31;3.55;;;1.77;;
37303;SDS011;23188;51.188;16.374;2022-07-09T21:34:32;1.80;;;0.82;;
37303;SDS011;23188;51.188;16.374;2022-07-09T21:38:33;2.87;;;1.42;;
37303;SDS011;23188;51.188;16.374;2022-07-09T21:42:34;3.50;;;1.45;;
37303;SDS011;23188;51.188;16.374;2022-07-09T21:46:36;1.37;;;1.10;;
37303;SDS011;23188;51.188;16.374;2022-07-09T21:50:40;4.72;;;1.82;;
37303;SDS011;23188;51.188;16.374;2022-07-09T21:54:41;1.67;;;1.20;;
37303;SDS011;23188;51.188;16.374;2022-07-09T21:58:43;2.85;;;1.15;;
37303;SDS011;23188;51.188;16.374;2022-07-09T22:02:44;3.40;;;1.45;;
37303;SDS011;23188;51.188;16.374;2022-07-09T22:06:47;2.65;;;1.98;;
37303;SDS011;23188;51.188;16.374;2022-07-09T22:10:49;1.98;;;1.80;;
37303;SDS011;23188;51.188;16.374;2022-07-09T22:14:51;2.25;;;1.27;;
37303;SDS011;23188;51.188;16.374;2022-07-09T22:18:52;3.35;;;1.82;;
37303;SDS011;23188;51.188;16.374;2022-07-09T22:23:01;5.22;;;2.77;;
37303;SDS011;23188;51.188;16.374;2022-07-09T22:27:02;4.12;;;1.95;;
37303;SDS011;23188;51.188;16.374;2022-07-09T22:31:05;6.53;;;2.25;;
37303;SDS011;23188;51.188;16.374;2022-07-09T22:35:06;6.40;;;2.52;;
37303;SDS011;23188;51.188;16.374;2022-07-09T22:39:08;2.40;;;1.15;;
37303;SDS011;23188;51.188;16.374;2022-07-09T22:43:09;2.42;;;1.32;;
37303;SDS011;23188;51.188;16.374;2022-07-09T22:47:11;3.00;;;1.95;;
37303;SDS011;23188;51.188;16.374;2022-07-09T22:51:12;2.85;;;2.25;;
37303;SDS011;23188;51.188;16.374;2022-07-09T22:55:13;2.47;;;1.50;;
37303;SDS011;23188;51.188;16.374;2022-07-09T22:59:14;2.55;;;2.25;;
37303;SDS011;23188;51.188;16.374;2022-07-09T23:03:15;3.80;;;2.27;;
37303;SDS011;23188;51.188;16.374;2022-07-09T23:07:17;1.80;;;1.57;;
37303;SDS011;23188;51.188;16.374;2022-07-09T23:11:36;3.58;;;1.98;;
37303;SDS011;23188;51.188;16.374;2022-07-09T23:15:38;3.20;;;2.58;;
37303;SDS011;23188;51.188;16.374;2022-07-09T23:19:40;4.28;;;2.20;;
37303;SDS011;23188;51.188;16.374;2022-07-09T23:23:41;3.67;;;2.62;;
37303;SDS011;23188;51.188;16.374;2022-07-09T23:27:42;5.85;;;2.50;;
37303;SDS011;23188;51.188;16.374;2022-07-09T23:31:46;1.70;;;1.60;;
37303;SDS011;23188;51.188;16.374;2022-07-09T23:35:47;3.22;;;2.40;;
37303;SDS011;23188;51.188;16.374;2022-07-09T23:39:48;7.85;;;3.70;;
37303;SDS011;23188;51.188;16.374;2022-07-09T23:43:49;2.87;;;2.30;;
37303;SDS011;23188;51.188;16.374;2022-07-09T23:47:51;5.33;;;3.08;;
37303;SDS011;23188;51.188;16.374;2022-07-09T23:51:53;3.02;;;2.58;;
37303;SDS011;23188;51.188;16.374;2022-07-09T23:55:55;4.33;;;2.70;;
37303;SDS011;23188;51.188;16.374;2022-07-09T23:59:56;5.60;;;3.77;;
